Flight Track Log - Related Links

Times and Time Zones

All times are in EDT time to prevent confusion due to time zone crossing. See the SKW5535 flight status page for this flight to view local times or setup timezone preferences in your user account.

Time Position Orientation Groundspeed Altitude Reporting Facility
EDT Latitude Longitude Course Direction KTS MPH feet Rate Location/Type
Sun 12:25:21 PM 39.9333 -104.6833 346° North 213 245 7,600  Level Denver TRACON
Sun 12:26:51 PM 40.0414 -104.6614 North 252 290 9,800 1,382 Climbing Denver Center
Sun 12:27:00 PM 40.3008 -104.8119 347° North  Level FlightAware Approximate
Sun 12:27:53 PM 40.1214 -104.6761 352° North 291 335 11,100  Level Denver Center
Sun 12:28:00 PM 40.4136 -104.8490 346° North  Level FlightAware Approximate
Sun 12:28:55 PM 40.2119 -104.6997 349° North 332 382 12,500  Level Denver Center
Sun 12:29:00 PM 40.5264 -104.8861 348° North  Level FlightAware Approximate
Sun 12:29:57 PM 40.3125 -104.7261 349° North 342 394 14,500  Level Denver Center
Sun 12:30:00 PM 40.6400 -104.9189 346° North  Level FlightAware Approximate
Sun 12:30:59 PM 40.4067 -104.7508 349° North 346 398 16,300  Level Denver Center
Sun 12:32:02 PM 40.5125 -104.7786 349° North 358 412 17,900 1,344 Climbing Denver Center
Sun 12:33:04 PM 40.6108 -104.8047 349° North 361 415 19,100 1,258 Climbing Denver Center
Sun 12:34:06 PM 40.7192 -104.8336 349° North 371 427 20,500 1,258 Climbing Denver Center
Sun 12:35:08 PM 40.8175 -104.8611 348° North 362 417 21,700 1,016 Climbing Denver Center
Sun 12:36:10 PM 40.9161 -104.9139 338° Northwest 380 437 22,600 919 Climbing Denver Center
Sun 12:37:12 PM 41.0317 -104.9686 340° North 391 450 23,600 919 Climbing Denver Center
Sun 12:38:14 PM 41.1322 -105.0178 340° North 398 458 24,500 871 Climbing Denver Center
Sun 12:39:16 PM 41.2303 -105.0767 336° Northwest 403 464 25,400 871 Climbing Denver Center
Sun 12:40:18 PM 41.3153 -105.1942 314° West 397 457 26,300 706 Climbing Denver Center
Sun 12:41:32 PM 41.3900 -105.2933 315° West 397 457 27,000 794 Climbing Denver Center
Sun 12:42:34 PM 41.4894 -105.4336 313° West 405 466 28,100 774 Climbing Denver Center
Sun 12:43:36 PM 41.5778 -105.5539 314° West 406 467 28,600 480 Climbing Denver Center
Sun 12:44:39 PM 41.6522 -105.6592 313° West 406 467 29,100 528 Climbing Denver Center
Sun 12:45:41 PM 41.7397 -105.7767 315° West 407 468 29,700 532 Climbing Denver Center
Sun 12:46:43 PM 41.8167 -105.8872 313° West 407 468 30,200 484 Climbing Denver Center
Sun 12:47:45 PM 41.8917 -105.9928 314° West 410 472 30,700 484 Climbing Denver Center
Sun 12:48:47 PM 41.9781 -106.1156 313° West 405 466 31,200 484 Climbing Denver Center
Sun 12:49:49 PM 42.0517 -106.2206 313° West 405 466 31,700 387 Climbing Denver Center
Sun 12:50:51 PM 42.1372 -106.3433 313° West 399 459 32,000 145 Climbing Denver Center
Sun 12:51:53 PM 42.2153 -106.4514 314° West 417 480 32,000  Level Denver Center
Sun 12:52:55 PM 42.3056 -106.5803 313° West 418 481 32,000  Level Denver Center
Sun 12:53:57 PM 42.3828 -106.6917 313° West 428 493 32,000  Level Denver Center
Sun 12:54:59 PM 42.4717 -106.8244 312° West 426 490 32,000  Level Denver Center
Sun 12:56:01 PM 42.5517 -106.9342 315° West 426 490 32,000  Level Denver Center
Sun 12:57:03 PM 42.6433 -107.0692 313° West 433 498 32,000  Level Denver Center
Sun 12:58:05 PM 42.7203 -107.1839 312° West 430 495 32,000  Level Denver Center
Sun 12:59:07 PM 42.8125 -107.3139 314° West 428 493 32,000  Level Denver Center
Sun 12:59:46 PM 42.8642 -107.3914 312° West 432 497 32,000  Level Salt Lake Center
Sun 01:00:48 PM 42.9442 -107.5133 312° West 433 498 32,000  Level Salt Lake Center
Sun 01:01:50 PM 43.0231 -107.6319 312° West 426 490 32,000  Level Salt Lake Center
Sun 01:02:52 PM 43.1036 -107.7522 313° West 428 493 32,000  Level Salt Lake Center
Sun 01:03:54 PM 43.1842 -107.8703 313° West 426 490 32,000  Level Salt Lake Center
Sun 01:04:56 PM 43.2644 -107.9928 312° West 429 494 32,000  Level Salt Lake Center
Sun 01:05:58 PM 43.3453 -108.1128 313° West 429 494 32,000  Level Salt Lake Center
Sun 01:06:59 PM 43.4406 -108.2583 312° West 429 494 32,000  Level Salt Lake Center
Sun 01:08:01 PM 43.5214 -108.3806 312° West 429 494 32,000  Level Salt Lake Center
Sun 01:09:03 PM 43.6003 -108.5003 312° West 424 488 32,000  Level Salt Lake Center
Sun 01:10:05 PM 43.6806 -108.6244 312° West 430 495 32,000  Level Salt Lake Center
Sun 01:11:07 PM 43.7608 -108.7472 312° West 430 495 32,000  Level Salt Lake Center
Sun 01:12:09 PM 43.8406 -108.8717 312° West 431 496 32,000  Level Salt Lake Center
Sun 01:13:11 PM 43.9200 -108.9939 312° West 427 491 32,000  Level Salt Lake Center
Sun 01:14:13 PM 44.0142 -109.1417 312° West 425 489 32,000  Level Salt Lake Center
Sun 01:15:14 PM 44.0931 -109.2661 311° West 428 493 32,000  Level Salt Lake Center
Sun 01:16:16 PM 44.1717 -109.3903 311° West 428 493 32,000  Level Salt Lake Center
Sun 01:17:18 PM 44.2586 -109.5242 312° West 430 495 32,000  Level Salt Lake Center
Sun 01:18:20 PM 44.3333 -109.6447 311° West 430 495 32,000  Level Salt Lake Center
Sun 01:19:22 PM 44.4208 -109.7836 311° West 428 493 32,000  Level Salt Lake Center
Sun 01:20:24 PM 44.4958 -109.9033 311° West 429 494 32,000  Level Salt Lake Center
Sun 01:21:26 PM 44.5822 -110.0431 311° West 427 491 32,000  Level Salt Lake Center
Sun 01:22:28 PM 44.6550 -110.1631 310° West 423 487 32,000  Level Salt Lake Center
Sun 01:23:30 PM 44.7414 -110.3039 311° West 426 490 32,000  Level Salt Lake Center
Sun 01:24:32 PM 44.8153 -110.4242 311° West 426 490 32,000  Level Salt Lake Center
Sun 01:25:34 PM 44.9003 -110.5639 311° West 424 488 32,000  Level Salt Lake Center
Sun 01:26:36 PM 44.9733 -110.6839 311° West 422 486 32,000  Level Salt Lake Center
Sun 01:27:39 PM 45.0583 -110.8250 310° West 424 488 32,000  Level Salt Lake Center
Sun 01:28:41 PM 45.1303 -110.9461 310° West 423 487 32,000  Level Salt Lake Center
Sun 01:29:43 PM 45.2153 -111.0872 311° West 423 487 32,000  Level Salt Lake Center
Sun 01:30:45 PM 45.2883 -111.2094 310° West 426 490 32,000  Level Salt Lake Center
Sun 01:31:47 PM 45.3597 -111.3314 310° West 423 487 32,000  Level Salt Lake Center
Sun 01:32:49 PM 45.4453 -111.4764 310° West 428 493 32,000  Level Salt Lake Center
Sun 01:33:51 PM 45.5181 -111.5986 310° West 424 488 32,000  Level Salt Lake Center
Sun 01:34:53 PM 45.6008 -111.7431 309° West 422 486 32,000  Level Salt Lake Center
Sun 01:35:55 PM 45.6747 -111.8681 310° West 428 493 32,000  Level Salt Lake Center
Sun 01:36:57 PM 45.7592 -112.0133 310° West 426 490 32,000  Level Salt Lake Center
Sun 01:37:59 PM 45.8314 -112.1403 309° West 428 493 32,000  Level Salt Lake Center
Sun 01:39:01 PM 45.9164 -112.2872 310° West 430 495 32,000 -242 Level Salt Lake Center
Sun 01:40:03 PM 45.9883 -112.4125 310° West 427 491 31,500 -1,355 Descending Salt Lake Center
Sun 01:41:05 PM 46.0686 -112.5558 309° West 416 479 29,200 -2,081 Descending Salt Lake Center
Sun 01:42:07 PM 46.1331 -112.6722 309° West 398 458 27,200 -2,032 Descending Salt Lake Center
Sun 01:43:09 PM 46.2108 -112.8106 309° West 398 458 25,000 -1,984 Descending Salt Lake Center
Sun 01:44:11 PM 46.2636 -112.9344 302° West 379 436 23,100 -1,839 Descending Salt Lake Center
Sun 01:45:13 PM 46.3139 -113.0758 297° West 354 407 21,200 -1,645 Descending Salt Lake Center
Sun 01:46:15 PM 46.3558 -113.1944 297° West 346 398 19,700 -1,597 Descending Salt Lake Center
Sun 01:47:17 PM 46.4044 -113.3311 297° West 346 398 17,900 -1,597 Descending Salt Lake Center
Sun 01:48:19 PM 46.4469 -113.4542 297° West 343 395 16,400 -1,742 Descending Salt Lake Center
Sun 01:49:21 PM 46.4900 -113.5792 297° West 325 374 14,300 -1,984 Descending Salt Lake Center
Sun 01:50:23 PM 46.5281 -113.6892 297° West 308 354 12,300 -1,984 Descending Salt Lake Center
Sun 01:51:25 PM 46.5664 -113.8008 297° West 291 335 10,200 -1,584 Descending Salt Lake Center
Sun 01:52:28 PM 46.6006 -113.9031 296° West 284 327 9,000 -576 Descending Salt Lake Center
Sun 01:53:30 PM 46.6286 -113.9825 297° West 226 260 9,000 -290 Level Salt Lake Center
Sun 01:54:32 PM 46.6708 -114.0350 320° Northwest 200 230 8,400 -435 Descending Salt Lake Center
Sun 01:55:34 PM 46.7269 -114.0464 352° North 205 236 8,100 -581 Descending Salt Lake Center
Sun 01:56:36 PM 46.7844 -114.0494 358° North 196 226 7,200 -1,113 Descending Salt Lake Center
Sun 01:57:38 PM 46.8281 -114.0147 29° Northeast 182 209 5,800 -1,306 Descending Salt Lake Center
Sun 01:58:40 PM 46.8708 -114.0161 359° North 157 181 4,500 -1,065 Descending Salt Lake Center
Sun 01:59:42 PM 46.8989 -114.0628 311° West 154 177 3,600 -871 Descending Salt Lake Center

Login

Don't have an account? Register now (free) for customized features, flight alerts, and more!